Time;durP1;ratioP1;P1;durP2;ratioP2;P2;SDS_P1;SDS_P2;PMS_P1;PMS_P2;Temp;Humidity;BMP_temperature;BMP_pressure;BME280_temperature;BME280_humidity;BME280_pressure;Samples;Min_cycle;Max_cycle;Signal;HPM_P1;HPM_P2
2021/08/27 00:02:11;;;;;;;9.23;6.33;;;14.90;99.90;;;;;;5026047;28;20207;-72
2021/08/27 00:04:38;;;;;;;9.13;5.57;;;14.90;99.90;;;;;;5017688;28;20225;-72
2021/08/27 00:07:05;;;;;;;7.03;5.87;;;14.90;99.90;;;;;;5029615;28;20213;-72
2021/08/27 00:09:31;;;;;;;8.93;5.60;;;14.90;99.90;;;;;;5023818;28;20207;-72
2021/08/27 00:11:58;;;;;;;8.30;5.43;;;14.90;99.90;;;;;;5019448;28;20305;-72
2021/08/27 00:14:25;;;;;;;6.67;5.67;;;15.00;99.90;;;;;;5016296;28;20671;-72
2021/08/27 00:16:54;;;;;;;7.43;5.83;;;14.90;99.90;;;;;;5027394;28;20226;-72
2021/08/27 00:19:22;;;;;;;7.80;6.17;;;14.90;99.90;;;;;;5023980;28;20648;-72
2021/08/27 00:21:50;;;;;;;8.87;6.00;;;14.90;99.90;;;;;;5011600;28;20683;-72
2021/08/27 00:24:16;;;;;;;6.90;5.87;;;14.90;99.90;;;;;;5014226;28;20210;-71
2021/08/27 00:26:44;;;;;;;7.20;5.67;;;14.90;99.90;;;;;;5021449;28;20215;-71
2021/08/27 00:29:10;;;;;;;7.17;5.97;;;14.90;99.90;;;;;;5022187;28;20214;-72
2021/08/27 00:31:37;;;;;;;8.50;5.50;;;14.90;99.90;;;;;;5011123;28;20207;-72
2021/08/27 00:34:05;;;;;;;9.07;6.67;;;14.90;99.90;;;;;;5025058;28;20642;-71
2021/08/27 00:36:32;;;;;;;6.23;5.63;;;14.90;99.90;;;;;;5024082;28;20241;-72
2021/08/27 00:38:59;;;;;;;7.80;6.37;;;14.90;99.90;;;;;;5018399;28;20218;-71
2021/08/27 00:41:26;;;;;;;7.10;6.07;;;14.90;99.90;;;;;;5012056;28;20262;-72
2021/08/27 00:43:53;;;;;;;6.20;5.33;;;14.80;99.90;;;;;;5020662;28;20214;-72
2021/08/27 00:46:19;;;;;;;8.00;6.23;;;14.80;99.90;;;;;;5013377;28;20555;-73
2021/08/27 00:48:46;;;;;;;8.57;6.27;;;14.80;99.90;;;;;;5030956;28;20233;-72
2021/08/27 00:51:14;;;;;;;6.63;5.70;;;14.80;99.90;;;;;;5032286;28;20218;-71
2021/08/27 00:53:41;;;;;;;6.83;5.70;;;14.80;99.90;;;;;;5012623;28;20199;-71
2021/08/27 00:56:08;;;;;;;7.67;5.37;;;14.80;99.90;;;;;;5026935;28;20231;-71
2021/08/27 00:58:35;;;;;;;7.47;5.73;;;14.80;99.90;;;;;;5010894;28;20211;-72
2021/08/27 01:01:02;;;;;;;7.17;6.23;;;14.80;99.90;;;;;;5010671;28;20208;-72
2021/08/27 01:03:29;;;;;;;9.53;6.50;;;14.80;99.90;;;;;;5014664;28;20203;-71
2021/08/27 01:06:04;;;;;;;7.03;5.93;;;14.70;99.90;;;;;;5020494;28;20214;-72
2021/08/27 01:08:37;;;;;;;6.83;5.77;;;14.70;99.90;;;;;;5017715;28;20198;-72
2021/08/27 01:11:11;;;;;;;6.47;5.73;;;14.70;99.90;;;;;;5014935;28;20203;-73
2021/08/27 01:13:43;;;;;;;7.57;6.03;;;14.70;99.90;;;;;;5032810;28;20206;-71
2021/08/27 01:16:14;;;;;;;6.03;5.43;;;14.70;99.90;;;;;;5026811;28;20219;-71
2021/08/27 01:18:46;;;;;;;8.37;6.10;;;14.70;99.90;;;;;;5015263;28;20207;-71
2021/08/27 01:21:47;;;;;;;8.10;5.77;;;14.70;99.90;;;;;;5020524;28;20571;-72
2021/08/27 01:24:17;;;;;;;12.33;6.30;;;14.70;99.90;;;;;;5031620;28;20198;-71
2021/08/27 01:26:48;;;;;;;7.83;5.90;;;14.70;99.90;;;;;;5022929;28;20213;-71
2021/08/27 01:29:18;;;;;;;8.40;6.03;;;14.70;99.90;;;;;;5031783;28;20205;-72
2021/08/27 01:31:47;;;;;;;10.17;5.80;;;14.80;99.90;;;;;;5014600;28;20218;-71
2021/08/27 01:34:38;;;;;;;6.77;5.53;;;14.80;99.90;;;;;;5015821;28;20207;-72
2021/08/27 01:37:09;;;;;;;7.20;6.10;;;14.80;99.90;;;;;;5032020;28;20713;-72
2021/08/27 01:39:38;;;;;;;8.03;5.90;;;14.90;99.90;;;;;;5020018;28;20205;-72
2021/08/27 01:42:07;;;;;;;8.93;6.70;;;14.90;99.90;;;;;;5043749;28;20667;-72
2021/08/27 01:44:34;;;;;;;9.97;7.37;;;14.90;99.90;;;;;;5032454;28;20264;-72
2021/08/27 01:47:03;;;;;;;10.47;7.20;;;14.90;99.90;;;;;;5026399;28;20495;-71
2021/08/27 01:49:31;;;;;;;8.73;7.17;;;14.90;99.90;;;;;;5016544;28;20214;-72
2021/08/27 01:52:02;;;;;;;10.97;6.53;;;14.90;99.90;;;;;;5030666;28;20206;-72
2021/08/27 01:54:31;;;;;;;11.13;6.50;;;15.00;99.90;;;;;;5017494;28;20233;-72
2021/08/27 01:56:58;;;;;;;7.83;6.37;;;15.00;99.90;;;;;;5021168;28;20223;-71
2021/08/27 01:59:27;;;;;;;9.13;6.47;;;15.00;99.90;;;;;;5022846;28;20214;-72
2021/08/27 02:01:54;;;;;;;9.57;7.33;;;15.00;99.90;;;;;;5018011;28;20656;-72
2021/08/27 02:04:21;;;;;;;8.73;7.10;;;15.00;99.90;;;;;;5026777;28;20203;-72
2021/08/27 02:06:48;;;;;;;9.00;7.23;;;15.00;99.90;;;;;;5025170;28;20207;-71
2021/08/27 02:09:18;;;;;;;8.90;7.00;;;15.00;99.90;;;;;;5027459;28;20227;-72
2021/08/27 02:11:46;;;;;;;7.47;6.67;;;15.00;99.90;;;;;;5015055;28;20227;-73
2021/08/27 02:14:14;;;;;;;10.17;7.13;;;15.10;99.90;;;;;;5019556;28;20574;-71
2021/08/27 02:16:42;;;;;;;9.20;7.50;;;15.00;99.90;;;;;;5022696;28;20227;-72
2021/08/27 02:19:09;;;;;;;8.83;6.83;;;15.10;99.90;;;;;;5017936;28;20207;-73
2021/08/27 02:21:41;;;;;;;9.60;7.20;;;15.00;99.90;;;;;;5012821;28;20211;-72
2021/08/27 02:24:14;;;;;;;11.77;7.27;;;15.00;99.90;;;;;;5029731;28;20217;-72
2021/08/27 02:26:44;;;;;;;8.97;7.00;;;15.10;99.90;;;;;;5023834;28;20226;-72
2021/08/27 02:29:14;;;;;;;10.40;7.03;;;15.10;99.90;;;;;;5013467;28;20219;-72
2021/08/27 02:31:44;;;;;;;8.27;7.40;;;15.10;99.90;;;;;;5022064;28;20722;-72
2021/08/27 02:34:13;;;;;;;12.93;8.90;;;15.10;99.90;;;;;;5032478;28;20242;-72
2021/08/27 02:36:42;;;;;;;11.43;8.33;;;15.10;99.90;;;;;;5018699;28;20222;-72
2021/08/27 02:39:09;;;;;;;13.10;9.47;;;15.10;99.90;;;;;;5019161;28;20226;-72
2021/08/27 02:41:36;;;;;;;18.30;10.30;;;15.10;99.90;;;;;;5013853;28;20239;-71
2021/08/27 02:44:05;;;;;;;12.70;10.17;;;15.00;99.90;;;;;;5020863;28;20207;-72
2021/08/27 02:46:31;;;;;;;10.83;9.60;;;15.00;99.90;;;;;;5014533;28;20531;-72
2021/08/27 02:48:58;;;;;;;13.73;9.97;;;15.00;99.90;;;;;;5021770;28;20571;-72
2021/08/27 02:51:34;;;;;;;12.43;9.77;;;15.00;99.90;;;;;;5033263;28;20226;-71
2021/08/27 02:54:04;;;;;;;12.47;10.00;;;15.00;99.90;;;;;;5014996;28;20225;-72
2021/08/27 02:56:35;;;;;;;12.53;10.10;;;15.00;99.90;;;;;;5019975;28;20238;-72
2021/08/27 02:59:10;;;;;;;14.40;10.10;;;15.00;99.90;;;;;;5012867;28;20221;-71
2021/08/27 03:01:40;;;;;;;13.47;10.33;;;15.00;99.90;;;;;;5025754;28;20210;-72
2021/08/27 03:04:12;;;;;;;13.23;10.90;;;15.00;99.90;;;;;;5026206;28;20211;-71
2021/08/27 03:06:46;;;;;;;13.43;11.40;;;15.00;99.90;;;;;;5031670;28;20221;-72
2021/08/27 03:09:14;;;;;;;12.80;10.33;;;15.00;99.90;;;;;;5013186;28;20206;-72
2021/08/27 03:11:46;;;;;;;12.23;10.03;;;15.00;99.90;;;;;;5013027;28;20655;-72
2021/08/27 03:14:18;;;;;;;16.30;10.80;;;15.00;99.90;;;;;;5016312;28;20678;-73
2021/08/27 03:16:48;;;;;;;13.13;11.00;;;15.10;99.90;;;;;;5021327;28;20266;-72
2021/08/27 03:19:21;;;;;;;15.93;10.77;;;15.10;99.90;;;;;;5012959;28;20602;-71
2021/08/27 03:21:53;;;;;;;13.63;10.47;;;15.10;99.90;;;;;;5018535;28;20230;-72
2021/08/27 03:24:23;;;;;;;15.00;10.03;;;15.00;99.90;;;;;;5019170;28;20214;-72
2021/08/27 03:26:56;;;;;;;14.50;10.63;;;15.10;99.90;;;;;;5032170;28;20210;-72
2021/08/27 03:29:28;;;;;;;15.37;11.90;;;15.10;99.90;;;;;;5014949;28;20596;-73
2021/08/27 03:31:56;;;;;;;13.23;11.43;;;15.10;99.90;;;;;;5023092;28;20214;-72
2021/08/27 03:34:24;;;;;;;18.27;11.83;;;15.10;99.90;;;;;;5025900;28;20651;-72
2021/08/27 03:36:52;;;;;;;15.03;11.73;;;15.00;99.90;;;;;;5016342;28;20230;-71
2021/08/27 03:39:21;;;;;;;14.60;11.53;;;15.10;99.90;;;;;;5018037;28;20234;-71
2021/08/27 03:41:48;;;;;;;17.57;11.37;;;15.10;99.90;;;;;;5032012;28;20217;-72
2021/08/27 03:44:18;;;;;;;15.57;11.80;;;15.10;99.90;;;;;;5020827;28;20289;-71
2021/08/27 03:46:47;;;;;;;14.40;12.00;;;15.10;99.90;;;;;;5012787;28;20665;-72
2021/08/27 03:49:15;;;;;;;17.83;12.53;;;15.10;99.90;;;;;;5025195;28;20215;-72
2021/08/27 03:51:45;;;;;;;15.60;12.13;;;15.10;99.90;;;;;;5026399;28;20250;-72
2021/08/27 03:54:14;;;;;;;14.53;11.37;;;15.10;99.90;;;;;;5015892;28;20223;-72
2021/08/27 03:56:42;;;;;;;15.67;11.83;;;15.20;99.90;;;;;;5018596;28;20223;-72
2021/08/27 03:59:10;;;;;;;17.33;12.73;;;15.20;99.90;;;;;;5024129;28;20664;-72
2021/08/27 04:01:36;;;;;;;16.83;12.67;;;15.30;99.90;;;;;;5031153;28;20206;-73
2021/08/27 04:04:05;;;;;;;15.90;11.83;;;15.20;99.90;;;;;;5013305;28;20211;-71
2021/08/27 04:06:32;;;;;;;16.23;12.20;;;15.30;99.90;;;;;;5039155;28;20636;-72
2021/08/27 04:08:59;;;;;;;17.27;12.33;;;15.30;99.90;;;;;;5014165;28;20226;-72
2021/08/27 04:11:26;;;;;;;15.40;12.47;;;15.30;99.90;;;;;;5012449;28;20722;-72
2021/08/27 04:13:53;;;;;;;16.80;12.20;;;15.40;99.90;;;;;;5026451;28;20203;-72
2021/08/27 04:16:19;;;;;;;16.77;12.20;;;15.30;99.90;;;;;;5022355;28;20218;-72
2021/08/27 04:18:47;;;;;;;14.77;12.00;;;15.40;99.90;;;;;;5011629;28;20222;-72
2021/08/27 04:21:15;;;;;;;19.60;14.03;;;15.40;99.90;;;;;;5028241;28;20211;-73
2021/08/27 04:23:41;;;;;;;16.43;12.73;;;15.30;99.90;;;;;;5019074;28;20207;-72
2021/08/27 04:26:08;;;;;;;19.30;12.77;;;15.30;99.90;;;;;;5028858;28;20563;-72
2021/08/27 04:28:35;;;;;;;17.67;12.90;;;15.30;99.90;;;;;;5026653;28;20257;-72
2021/08/27 04:31:02;;;;;;;18.27;12.60;;;15.40;99.90;;;;;;5026413;28;20213;-72
2021/08/27 04:33:29;;;;;;;18.97;13.27;;;15.40;99.90;;;;;;5022066;28;20222;-71
2021/08/27 04:35:55;;;;;;;21.60;14.17;;;15.40;99.90;;;;;;5025344;28;20238;-72
2021/08/27 04:38:23;;;;;;;19.20;13.53;;;15.40;99.90;;;;;;5020777;28;20235;-72
2021/08/27 04:40:50;;;;;;;22.30;13.83;;;15.50;99.90;;;;;;5011401;28;20242;-72
2021/08/27 04:43:17;;;;;;;19.77;13.27;;;15.60;99.90;;;;;;5023626;28;20234;-72
2021/08/27 04:45:44;;;;;;;24.00;14.63;;;15.50;99.90;;;;;;5031349;28;20600;-72
2021/08/27 04:48:10;;;;;;;19.33;14.10;;;15.60;99.90;;;;;;5023096;28;20203;-72
2021/08/27 04:50:37;;;;;;;25.13;16.50;;;15.70;99.90;;;;;;5017451;28;20203;-72
2021/08/27 04:53:04;;;;;;;21.57;15.27;;;15.70;99.90;;;;;;5018265;28;20214;-72
2021/08/27 04:55:32;;;;;;;26.33;16.33;;;15.70;99.90;;;;;;5018833;28;20208;-72
2021/08/27 04:57:59;;;;;;;22.90;15.87;;;15.80;99.90;;;;;;5028016;28;20234;-73
2021/08/27 05:00:25;;;;;;;24.17;17.20;;;15.80;99.90;;;;;;5029995;28;20228;-72
2021/08/27 05:02:52;;;;;;;26.10;16.90;;;15.80;99.90;;;;;;5030753;28;20671;-72
2021/08/27 05:05:19;;;;;;;24.77;17.13;;;15.90;99.90;;;;;;5031213;28;20305;-72
2021/08/27 05:07:46;;;;;;;25.03;18.40;;;15.90;99.90;;;;;;5029578;28;20215;-73
2021/08/27 05:10:13;;;;;;;24.50;18.30;;;15.90;99.90;;;;;;5030550;28;20202;-71
2021/08/27 05:12:41;;;;;;;26.10;19.40;;;15.90;99.90;;;;;;5029906;28;20207;-72
2021/08/27 05:15:09;;;;;;;28.50;19.60;;;15.90;99.90;;;;;;5029559;28;20289;-74
2021/08/27 05:17:36;;;;;;;26.67;18.23;;;15.90;99.90;;;;;;5030401;28;20222;-72
2021/08/27 05:20:04;;;;;;;28.80;19.43;;;15.90;99.90;;;;;;5030744;28;20218;-72
2021/08/27 05:22:30;;;;;;;28.13;19.80;;;15.90;99.90;;;;;;5030186;28;20218;-73
2021/08/27 05:24:57;;;;;;;30.40;19.83;;;15.90;99.90;;;;;;5028620;28;20637;-72
2021/08/27 05:27:24;;;;;;;29.23;20.10;;;15.90;99.90;;;;;;5032442;28;20569;-72
2021/08/27 05:29:52;;;;;;;28.77;21.03;;;15.80;99.90;;;;;;5029938;28;20225;-71
2021/08/27 05:32:19;;;;;;;26.60;18.47;;;15.80;99.90;;;;;;5030444;28;20218;-70
2021/08/27 05:34:46;;;;;;;25.03;17.87;;;15.90;99.90;;;;;;5029056;28;20257;-72
2021/08/27 05:37:13;;;;;;;23.37;18.20;;;15.90;99.90;;;;;;5030192;28;20258;-72
2021/08/27 05:39:40;;;;;;;24.87;19.10;;;15.90;99.90;;;;;;5029231;28;20241;-73
2021/08/27 05:42:06;;;;;;;26.93;20.30;;;16.00;99.90;;;;;;5025944;28;20207;-71
2021/08/27 05:44:33;;;;;;;25.83;19.23;;;16.00;99.90;;;;;;5029348;28;20211;-72
2021/08/27 05:47:01;;;;;;;23.07;18.83;;;16.10;99.90;;;;;;5030305;28;20670;-71
2021/08/27 05:49:28;;;;;;;22.03;17.70;;;16.10;99.90;;;;;;5029558;28;20218;-72
2021/08/27 05:51:55;;;;;;;22.47;18.03;;;16.10;99.90;;;;;;5024158;28;20215;-72
2021/08/27 05:54:21;;;;;;;21.90;17.80;;;16.20;99.90;;;;;;5017867;28;20213;-70
2021/08/27 05:56:48;;;;;;;21.57;17.43;;;16.20;99.90;;;;;;5027806;28;20229;-70
2021/08/27 05:59:15;;;;;;;19.10;16.73;;;16.30;99.90;;;;;;5013647;28;20211;-71
2021/08/27 06:01:42;;;;;;;20.93;16.80;;;16.30;99.90;;;;;;5023989;28;20210;-73
2021/08/27 06:04:10;;;;;;;21.00;16.67;;;16.40;99.90;;;;;;5033745;28;20210;-69
2021/08/27 06:06:37;;;;;;;22.37;17.37;;;16.40;99.90;;;;;;5021775;28;20222;-72
2021/08/27 06:09:05;;;;;;;22.43;16.80;;;16.40;99.90;;;;;;5025053;28;20652;-72
2021/08/27 06:11:35;;;;;;;22.47;16.67;;;16.40;99.90;;;;;;5031334;28;20256;-71
2021/08/27 06:14:03;;;;;;;22.63;17.53;;;16.40;99.90;;;;;;5021271;28;20293;-73
2021/08/27 06:16:29;;;;;;;22.43;18.70;;;16.50;99.90;;;;;;5024434;28;20648;-70
2021/08/27 06:18:56;;;;;;;21.00;17.93;;;16.50;99.90;;;;;;5025029;28;20675;-70
2021/08/27 06:21:25;;;;;;;22.80;17.97;;;16.50;99.90;;;;;;5018257;28;20693;-73
2021/08/27 06:23:52;;;;;;;22.27;17.53;;;16.50;99.90;;;;;;5031530;28;20643;-71
2021/08/27 06:26:19;;;;;;;20.20;17.60;;;16.60;99.90;;;;;;5020617;28;20515;-69
2021/08/27 06:28:46;;;;;;;25.07;17.57;;;16.60;99.90;;;;;;5031823;28;20205;-68
2021/08/27 06:31:13;;;;;;;20.33;16.63;;;16.60;99.90;;;;;;5032658;28;20210;-70
2021/08/27 06:33:39;;;;;;;22.83;16.63;;;16.60;99.90;;;;;;5033928;28;20206;-70
2021/08/27 06:36:06;;;;;;;19.67;16.73;;;16.70;99.90;;;;;;5033629;28;20230;-69
2021/08/27 06:38:35;;;;;;;21.00;17.67;;;16.60;99.90;;;;;;5032423;28;20249;-71
2021/08/27 06:41:04;;;;;;;25.20;17.27;;;16.60;99.90;;;;;;5031772;28;20238;-70
2021/08/27 06:43:33;;;;;;;23.33;17.07;;;16.60;99.90;;;;;;5032678;28;20666;-70
2021/08/27 06:46:02;;;;;;;19.90;16.47;;;16.60;99.90;;;;;;5032790;28;20218;-68
2021/08/27 06:48:28;;;;;;;20.20;16.13;;;16.60;99.90;;;;;;5030527;28;20206;-71
2021/08/27 06:50:55;;;;;;;17.60;15.10;;;16.60;99.90;;;;;;5033220;28;20207;-71
2021/08/27 06:53:22;;;;;;;20.50;16.30;;;16.60;99.90;;;;;;5022322;28;20656;-72
2021/08/27 06:55:50;;;;;;;19.67;15.83;;;16.60;99.90;;;;;;5013138;28;20617;-71
2021/08/27 06:58:17;;;;;;;20.87;17.20;;;16.60;99.90;;;;;;5027202;28;20230;-71
2021/08/27 07:00:44;;;;;;;18.50;15.40;;;16.60;99.90;;;;;;5017094;28;20214;-72
2021/08/27 07:03:11;;;;;;;20.13;16.20;;;16.70;99.90;;;;;;5021306;28;20217;-71
2021/08/27 07:05:38;;;;;;;22.23;15.93;;;16.80;99.90;;;;;;5013784;28;20654;-72
2021/08/27 07:08:05;;;;;;;18.27;15.13;;;16.90;99.90;;;;;;5013753;28;20211;-71
2021/08/27 07:10:33;;;;;;;17.27;14.77;;;16.90;99.90;;;;;;5018376;28;20214;-71
2021/08/27 07:13:03;;;;;;;20.93;15.03;;;17.00;99.90;;;;;;5024814;28;20207;-70
2021/08/27 07:15:30;;;;;;;16.13;13.93;;;17.10;99.90;;;;;;5015582;28;20203;-71
2021/08/27 07:17:57;;;;;;;15.70;12.80;;;17.20;99.90;;;;;;5025935;28;20282;-73
2021/08/27 07:20:25;;;;;;;18.27;13.00;;;17.20;99.90;;;;;;5015203;28;20565;-70
2021/08/27 07:22:52;;;;;;;15.40;13.70;;;17.20;99.90;;;;;;5013735;28;20207;-70
2021/08/27 07:25:19;;;;;;;15.57;13.13;;;17.40;99.90;;;;;;5013308;28;20218;-70
2021/08/27 07:27:47;;;;;;;17.77;13.57;;;17.40;99.90;;;;;;5017719;28;20286;-72
2021/08/27 07:30:15;;;;;;;15.63;13.93;;;17.40;99.90;;;;;;5030956;28;20539;-72
2021/08/27 07:32:42;;;;;;;17.40;12.30;;;17.50;99.90;;;;;;5021567;28;20198;-70
2021/08/27 07:35:10;;;;;;;15.77;12.87;;;17.50;99.90;;;;;;5033024;28;20206;-71
2021/08/27 07:37:38;;;;;;;15.53;13.37;;;17.60;99.90;;;;;;5027339;28;20240;-71
2021/08/27 07:40:07;;;;;;;14.43;12.33;;;17.60;99.90;;;;;;5024944;28;20247;-71
2021/08/27 07:42:34;;;;;;;15.03;12.50;;;17.70;99.90;;;;;;5024912;28;21512;-70
2021/08/27 07:45:02;;;;;;;16.57;12.20;;;17.90;99.90;;;;;;5026143;28;20207;-73
2021/08/27 07:47:30;;;;;;;17.67;14.40;;;18.00;99.90;;;;;;5031206;28;20214;-73
2021/08/27 07:49:57;;;;;;;14.85;13.10;;;18.10;99.90;;;;;;5030512;28;20206;-72
2021/08/27 07:52:24;;;;;;;14.53;12.93;;;18.10;99.90;;;;;;5029359;28;20207;-72
2021/08/27 07:54:50;;;;;;;14.83;12.27;;;18.20;99.90;;;;;;5032700;28;20213;-72
2021/08/27 07:57:17;;;;;;;12.93;11.63;;;18.30;99.90;;;;;;5022814;28;20539;-72
2021/08/27 07:59:44;;;;;;;13.35;11.63;;;18.50;99.90;;;;;;5032470;28;20222;-73
2021/08/27 08:02:11;;;;;;;13.48;10.80;;;18.70;99.90;;;;;;5032045;28;20202;-73
2021/08/27 08:04:39;;;;;;;12.10;9.88;;;19.00;99.90;;;;;;5031327;28;20225;-73
2021/08/27 08:07:05;;;;;;;12.43;9.85;;;19.20;99.90;;;;;;5023472;28;20222;-71
2021/08/27 08:09:32;;;;;;;14.23;9.80;;;19.40;99.90;;;;;;5025271;28;20207;-71
2021/08/27 08:11:59;;;;;;;9.85;8.82;;;19.30;99.90;;;;;;5030526;28;20215;-70
2021/08/27 08:14:26;;;;;;;13.53;9.27;;;19.30;99.90;;;;;;5024790;28;20207;-71
2021/08/27 08:16:52;;;;;;;11.25;9.02;;;19.30;99.90;;;;;;5032129;28;20652;-70
2021/08/27 08:19:19;;;;;;;11.73;8.45;;;19.30;99.90;;;;;;5030706;28;20233;-72
2021/08/27 08:21:50;;;;;;;10.25;8.55;;;19.20;99.90;;;;;;5031475;28;20281;-70
2021/08/27 08:24:17;;;;;;;10.20;8.30;;;19.20;99.90;;;;;;5032116;28;20215;-69
2021/08/27 08:26:44;;;;;;;8.88;7.97;;;19.20;99.90;;;;;;5031264;28;20572;-71
2021/08/27 08:29:10;;;;;;;9.60;7.28;;;19.10;99.90;;;;;;5031320;28;20210;-69
2021/08/27 08:31:37;;;;;;;8.57;6.82;;;19.10;99.90;;;;;;5031610;28;20214;-70
2021/08/27 08:34:04;;;;;;;10.07;7.85;;;19.30;99.90;;;;;;5027084;28;20206;-69
2021/08/27 08:36:31;;;;;;;9.18;7.03;;;19.50;99.90;;;;;;5031345;28;20222;-71
2021/08/27 08:38:59;;;;;;;8.65;6.40;;;19.60;99.90;;;;;;5030933;28;20230;-70
2021/08/27 08:41:26;;;;;;;7.20;5.55;;;19.70;99.90;;;;;;5030491;28;20613;-69
2021/08/27 08:43:53;;;;;;;7.05;5.90;;;20.00;99.90;;;;;;5029925;28;20206;-69
2021/08/27 08:46:22;;;;;;;6.85;5.07;;;20.20;99.90;;;;;;5030358;28;20210;-69
2021/08/27 08:48:51;;;;;;;6.30;5.63;;;20.30;99.90;;;;;;5030924;28;20608;-72
2021/08/27 08:51:18;;;;;;;8.43;5.55;;;20.30;99.90;;;;;;5018563;28;20218;-67
2021/08/27 08:53:49;;;;;;;5.93;5.38;;;20.40;99.90;;;;;;5028948;28;20264;-70
2021/08/27 08:56:18;;;;;;;7.63;6.45;;;20.40;99.90;;;;;;5031488;28;20206;-71
2021/08/27 08:58:44;;;;;;;8.23;7.40;;;20.40;99.90;;;;;;5022154;28;20227;-69
2021/08/27 09:01:16;;;;;;;14.52;12.02;;;20.40;99.90;;;;;;5022142;28;20222;-70
2021/08/27 09:03:43;;;;;;;15.10;11.73;;;20.30;99.90;;;;;;5030137;28;20207;-71
2021/08/27 09:06:10;;;;;;;14.85;10.50;;;20.10;99.90;;;;;;5028274;28;20213;-69
2021/08/27 09:08:39;;;;;;;9.10;7.93;;;20.00;99.90;;;;;;5029611;28;20206;-70
2021/08/27 09:11:15;;;;;;;18.77;8.80;;;19.80;99.90;;;;;;5031054;28;20231;-72
2021/08/27 09:13:46;;;;;;;9.98;8.68;;;19.60;99.90;;;;;;5027568;28;20202;-71
2021/08/27 09:16:13;;;;;;;14.50;9.68;;;19.50;99.90;;;;;;5031435;28;20566;-71
2021/08/27 09:18:42;;;;;;;10.00;8.00;;;19.50;99.90;;;;;;5031587;28;20672;-71
2021/08/27 09:21:40;;;;;;;10.93;8.70;;;19.30;99.90;;;;;;5031417;28;20218;-72
2021/08/27 09:24:19;;;;;;;11.65;8.90;;;19.20;99.90;;;;;;5032073;28;20295;-72
2021/08/27 09:26:48;;;;;;;10.60;8.90;;;19.10;99.90;;;;;;5030351;28;20489;-73
2021/08/27 09:29:39;;;;;;;12.40;10.57;;;19.10;99.90;;;;;;5019738;28;20951;-71
2021/08/27 09:32:19;;;;;;;11.85;9.75;;;19.00;99.90;;;;;;5030556;28;20257;-72
2021/08/27 09:34:46;;;;;;;15.32;12.10;;;19.00;99.90;;;;;;5032935;28;20209;-70
2021/08/27 09:37:13;;;;;;;16.15;11.23;;;19.00;99.90;;;;;;5033855;28;20230;-70
2021/08/27 09:39:40;;;;;;;13.55;11.73;;;19.00;99.90;;;;;;5034124;28;20231;-70
2021/08/27 09:42:07;;;;;;;14.05;12.43;;;18.90;99.90;;;;;;5025123;28;20218;-70
2021/08/27 09:44:33;;;;;;;11.73;10.43;;;18.90;99.90;;;;;;5028917;28;20210;-70
2021/08/27 09:47:08;;;;;;;12.60;10.95;;;18.90;99.90;;;;;;5033905;28;20207;-72
2021/08/27 09:49:37;;;;;;;17.17;10.88;;;18.90;99.90;;;;;;5027636;28;20203;-69
2021/08/27 09:52:05;;;;;;;16.27;13.85;;;18.80;99.90;;;;;;5035011;28;20229;-69
2021/08/27 09:54:33;;;;;;;16.35;13.25;;;18.70;99.90;;;;;;5033991;28;20237;-69
2021/08/27 09:57:01;;;;;;;13.07;10.25;;;18.60;99.90;;;;;;5031457;28;20213;-71
2021/08/27 09:59:33;;;;;;;11.68;9.52;;;18.40;99.90;;;;;;5031439;28;20492;-71
2021/08/27 10:02:01;;;;;;;11.50;9.07;;;18.40;99.90;;;;;;5032316;28;20229;-70
2021/08/27 10:04:29;;;;;;;11.90;7.57;;;18.30;99.90;;;;;;5035653;28;20207;-74
2021/08/27 10:06:56;;;;;;;12.95;7.93;;;18.30;99.90;;;;;;5035632;28;20214;-70
2021/08/27 10:09:23;;;;;;;11.80;8.13;;;18.30;99.90;;;;;;5034789;28;20207;-70
2021/08/27 10:11:56;;;;;;;10.63;7.37;;;18.20;99.90;;;;;;5033742;28;20214;-71
2021/08/27 10:14:23;;;;;;;7.60;6.80;;;18.10;99.90;;;;;;5021154;28;20561;-71
2021/08/27 10:16:50;;;;;;;12.17;8.80;;;18.00;99.90;;;;;;5032907;28;20210;-69
2021/08/27 10:19:17;;;;;;;11.00;8.83;;;17.90;99.90;;;;;;5032512;28;20234;-70
2021/08/27 10:21:50;;;;;;;10.93;9.23;;;17.80;99.90;;;;;;5027495;28;20222;-74
2021/08/27 10:24:17;;;;;;;12.80;9.70;;;17.70;99.90;;;;;;5032640;28;20619;-73
2021/08/27 10:26:45;;;;;;;14.10;9.37;;;17.60;99.90;;;;;;5029927;28;21049;-74
2021/08/27 10:29:12;;;;;;;14.10;10.20;;;17.50;99.90;;;;;;5029386;28;20213;-73
2021/08/27 10:31:44;;;;;;;18.40;11.10;;;17.40;99.90;;;;;;5043215;28;20206;-73
2021/08/27 10:34:11;;;;;;;11.37;9.30;;;17.40;99.90;;;;;;5037851;28;20203;-74
2021/08/27 10:36:44;;;;;;;16.27;11.13;;;17.30;99.90;;;;;;5025516;28;20234;-73
2021/08/27 10:39:12;;;;;;;11.83;9.63;;;17.30;99.90;;;;;;5032694;28;20231;-73
2021/08/27 10:41:40;;;;;;;13.90;10.07;;;17.20;99.90;;;;;;5032350;28;20270;-70
2021/08/27 10:44:08;;;;;;;11.27;8.67;;;17.30;99.90;;;;;;5034122;28;20222;-70
2021/08/27 10:47:04;;;;;;;10.50;8.03;;;17.40;99.90;;;;;;5036214;28;20562;-70
2021/08/27 10:49:57;;;;;;;10.37;8.67;;;17.60;99.90;;;;;;5029350;28;20207;-72
2021/08/27 10:52:28;;;;;;;11.50;8.50;;;17.70;99.90;;;;;;5030471;28;20209;-70
2021/08/27 10:55:15;;;;;;;12.37;9.27;;;17.90;99.90;;;;;;5028811;28;20199;-73
2021/08/27 10:58:01;;;;;;;12.53;9.30;;;17.90;99.90;;;;;;5035713;28;20215;-74
2021/08/27 11:00:33;;;;;;;10.87;9.30;;;18.00;99.90;;;;;;5039221;28;20214;-73
2021/08/27 11:02:59;;;;;;;14.43;10.43;;;18.00;99.90;;;;;;5027576;28;20220;-74
2021/08/27 11:05:34;;;;;;;14.77;10.90;;;18.00;99.90;;;;;;5035554;28;20206;-73
2021/08/27 11:08:04;;;;;;;13.47;10.37;;;17.90;99.90;;;;;;5024655;28;20202;-76
2021/08/27 11:10:30;;;;;;;14.37;11.23;;;17.80;99.90;;;;;;5029088;28;20210;-73
2021/08/27 11:13:02;;;;;;;15.57;10.40;;;17.70;99.90;;;;;;5030741;28;20214;-74
2021/08/27 11:15:31;;;;;;;12.10;8.90;;;17.60;99.90;;;;;;5033341;28;20211;-74
2021/08/27 11:18:22;;;;;;;6.63;5.77;;;17.60;99.90;;;;;;5040178;28;20199;-74
2021/08/27 11:20:50;;;;;;;6.20;5.30;;;17.50;99.90;;;;;;5033133;28;20225;-75
2021/08/27 11:23:18;;;;;;;7.63;5.23;;;17.30;99.90;;;;;;5030412;28;20207;-74
2021/08/27 11:25:59;;;;;;;8.53;5.97;;;17.20;99.90;;;;;;5033156;28;20217;-74
2021/08/27 11:28:27;;;;;;;6.33;5.43;;;17.20;99.90;;;;;;5033872;28;20211;-75
2021/08/27 11:31:08;;;;;;;7.50;5.10;;;17.20;99.90;;;;;;5034207;28;20598;-74
2021/08/27 11:34:02;;;;;;;5.83;4.87;;;17.20;99.90;;;;;;5024298;28;20210;-72
2021/08/27 11:36:34;;;;;;;4.70;3.90;;;17.20;99.90;;;;;;5029561;28;20215;-74
2021/08/27 11:39:08;;;;;;;4.70;4.23;;;17.10;99.90;;;;;;5033722;28;20238;-72
2021/08/27 11:41:36;;;;;;;4.57;3.93;;;17.10;99.90;;;;;;5034262;28;20312;-74
2021/08/27 11:44:09;;;;;;;5.67;4.60;;;17.10;99.90;;;;;;5033952;28;20206;-73
2021/08/27 11:46:38;;;;;;;8.20;5.63;;;17.10;99.90;;;;;;5032972;28;20202;-74
2021/08/27 11:49:13;;;;;;;12.10;9.03;;;17.10;99.90;;;;;;5033266;28;20587;-72
2021/08/27 11:51:47;;;;;;;13.77;9.63;;;17.10;99.90;;;;;;5033775;28;20201;-73
2021/08/27 11:54:21;;;;;;;5.53;4.93;;;17.10;99.90;;;;;;5025858;28;20207;-73
2021/08/27 11:56:53;;;;;;;13.00;9.47;;;17.00;99.90;;;;;;5030080;28;20297;-73
2021/08/27 11:59:24;;;;;;;16.47;12.33;;;17.00;99.90;;;;;;5030372;28;20293;-74
2021/08/27 12:01:51;;;;;;;12.33;7.27;;;16.90;99.90;;;;;;5026518;28;20571;-73
2021/08/27 12:04:34;;;;;;;17.63;10.00;;;16.80;99.90;;;;;;5019414;28;20663;-74
2021/08/27 12:07:08;;;;;;;11.80;8.33;;;16.80;99.90;;;;;;5029566;28;20209;-73
2021/08/27 12:09:36;;;;;;;10.07;7.83;;;16.80;99.90;;;;;;5031341;28;20868;-69
2021/08/27 12:12:04;;;;;;;9.70;6.73;;;16.80;99.90;;;;;;5026551;28;20202;-70
2021/08/27 12:14:52;;;;;;;9.83;6.60;;;16.80;99.90;;;;;;5023950;28;20211;-71
2021/08/27 12:17:21;;;;;;;9.03;7.23;;;16.90;99.90;;;;;;5029317;28;20202;-71
2021/08/27 12:19:49;;;;;;;8.23;6.23;;;17.00;99.90;;;;;;5022937;28;20231;-70
2021/08/27 12:22:17;;;;;;;8.70;6.43;;;17.30;99.90;;;;;;5026388;28;20206;-69
2021/08/27 12:24:46;;;;;;;7.40;5.23;;;17.50;99.90;;;;;;5028707;28;20206;-71
2021/08/27 12:27:14;;;;;;;6.57;5.67;;;17.70;99.90;;;;;;5029045;28;20213;-70
2021/08/27 12:29:41;;;;;;;5.93;5.33;;;17.90;99.90;;;;;;5026800;28;20199;-72
2021/08/27 12:32:13;;;;;;;6.40;4.67;;;18.30;99.90;;;;;;5030863;28;20218;-73
2021/08/27 12:34:43;;;;;;;4.83;3.87;;;18.70;99.90;;;;;;5032292;28;20573;-75
2021/08/27 12:37:10;;;;;;;7.53;4.80;;;19.30;99.90;;;;;;5027611;28;20675;-71
2021/08/27 12:39:37;;;;;;;5.07;4.18;;;19.80;99.90;;;;;;5030920;28;20253;-73
2021/08/27 12:42:17;;;;;;;5.43;3.67;;;20.10;99.90;;;;;;5031949;28;20214;-71
2021/08/27 12:45:00;;;;;;;5.03;4.07;;;20.30;99.90;;;;;;5030761;28;20195;-72
2021/08/27 12:47:32;;;;;;;3.65;3.35;;;20.40;99.90;;;;;;5031287;28;20573;-72